Terminal Aerodrome Forecast
Issued by NWS

Home | Current Version | Previous Version | Text Only | Print | Product List | Glossary On
Versions: 1 2 3 4 5 6 7 8 9 10 11 12
371
FTUS45 KABQ 132343
TAFGUP
TAF
KGUP 132343Z 1400/1424 26011KT P6SM SKC
     FM140200 VRB04KT P6SM SCT250
     FM142000 29009KT P6SM FEW250=

USA.gov is the U.S. government's official web portal to all federal, state and local government web resources and services.